UAIIUADD

Guest
Details From UAII - SHYMKENT
To UADD - TARAZ
Flight Number -
Tags generated
Created
Modified
Stats Distance 86 nm / 159 km
Max Altitude 0 ft / 0 m
Waypoints 2
Social Downloads 0
Likes 0
Share VATSIM

Download

Looking for another format? Having issues loading an existing format? Contact us
Advertisement - Login to hide

Notes

Basic altitude profile: - Ascent Rate: 2500ft/min - Ascent Speed: 250kts - Cruise Altitude: 35000ft - Cruise Speed: 420kts - Descent Rate: 1500ft/min - Descent Speed: 250kts Options: - Use NATs: yes - Use PACOTS: yes - Use low airways: yes - Use high airways: yes

Route

UAII UADD

ID Type Via Altitude Latitude Longitude Leg Dist Tot Dist Heading (true) Name
O UAII APT - 0 ft / 0 m 42.36424˚ 69.47912˚ - 0 nm - SHYMKENT
O UADD APT - 0 ft / 0 m 42.85353˚ 71.30369˚ 85 nm 85 nm 69° / 71° TARAZ

Altitude Profile

Advertisement - Login to hide

UAII

Details ICAO UAII (CIT)
Name SHYMKENT
Region Kazakhstan and Kyrgyzstan
Timezone Asia/Almaty (UTC+6.0)
Stats Elevation 1,385 ft / 422 m (AMSL)
Location 42.364236° 69.479116°
Runways 1
Magnetic Variation 5.826° E

METAR

UAII 141700Z 00000MPS 0100 R28/0300 FZFG VV002 M10/M10 Q1030 R28/1///60 NOSIG RMK QBB080 QFE734/0979

Decode

TAF

TAF AMD TAF AMD UAII 141325Z 1413/1512 VRB02MPS 0200 FZFG VV001 TXM03/1509Z TNM11/1501Z TEMPO 1413/1505 34004MPS 0600 -SG FZFG OVC003 BECMG 1505/1507 02005MPS 1000 BR SCT020 BKN100

Decode

Departure Runways

ID Width Length Bearing (true) Bearing (mag) Surface Threshold Offset Overrun Length
10 144 ft / 44 m 9,167 ft / 2,794 m 106.29° 100.46° Concrete 0 ft / 0 m 0 ft / 0 m
28 144 ft / 44 m 9,167 ft / 2,794 m 286.31° 280.48° Concrete 0 ft / 0 m 0 ft / 0 m

UADD

Details ICAO UADD (DMB)
Name TARAZ
Region Kazakhstan and Kyrgyzstan
Timezone Asia/Almaty (UTC+6.0)
Stats Elevation 2,184 ft / 666 m (AMSL)
Location 42.853533° 71.303693°
Runways 1
Magnetic Variation 5.817° E

METAR

UADD 141700Z VRB01MPS 1500 R13/P2000D BR OVC003 M07/M07 Q1029 R13/490550 NOSIG RMK QBB100 MT OBSC QFE714/0953

Decode

TAF

Not found

Destination Runways

ID Width Length Bearing (true) Bearing (mag) Surface Threshold Offset Overrun Length
13 148 ft / 45 m 9,523 ft / 2,903 m 137.09° 131.27° Asphalt 0 ft / 0 m 0 ft / 0 m
31 148 ft / 45 m 9,523 ft / 2,903 m 317.11° 311.29° Asphalt 722 ft / 220 m 0 ft / 0 m

Popular Alternatives